Time;durP1;ratioP1;P1;durP2;ratioP2;P2;SDS_P1;SDS_P2;PMS_P1;PMS_P2;Temp;Humidity;BMP_temperature;BMP_pressure;BME280_temperature;BME280_humidity;BME280_pressure;Samples;Min_cycle;Max_cycle;Signal;HPM_P1;HPM_P2
2024/01/07 00:00:11;;;;;;;1.93;1.27;;;;;;;;;;4935259;29;20446;-82
2024/01/07 00:02:37;;;;;;;1.60;0.80;;;;;;;;;;4935767;29;20422;-82
2024/01/07 00:05:06;;;;;;;2.40;1.17;;;;;;;;;;4935617;29;20409;-82
2024/01/07 00:07:32;;;;;;;2.37;1.13;;;;;;;;;;4935626;29;21008;-82
2024/01/07 00:09:58;;;;;;;2.00;0.73;;;;;;;;;;4935540;29;20446;-81
2024/01/07 00:12:24;;;;;;;1.47;1.37;;;;;;;;;;4935529;29;20417;-82
2024/01/07 00:14:50;;;;;;;2.13;1.10;;;;;;;;;;4949971;29;20530;-82
2024/01/07 00:17:16;;;;;;;0.90;0.90;;;;;;;;;;4935549;29;20776;-82
2024/01/07 00:19:42;;;;;;;2.03;1.33;;;;;;;;;;4935507;29;20405;-82
2024/01/07 00:22:08;;;;;;;1.27;0.77;;;;;;;;;;4935271;29;20421;-82
2024/01/07 00:24:34;;;;;;;1.90;1.37;;;;;;;;;;4935520;29;20924;-82
2024/01/07 00:27:00;;;;;;;2.00;1.40;;;;;;;;;;4935377;29;20479;-82
2024/01/07 00:29:26;;;;;;;1.90;0.80;;;;;;;;;;4935127;29;20410;-82
2024/01/07 00:31:52;;;;;;;1.40;1.30;;;;;;;;;;4935430;29;20450;-82
2024/01/07 00:34:18;;;;;;;2.80;1.57;;;;;;;;;;4935356;29;20433;-82
2024/01/07 00:36:44;;;;;;;2.47;1.27;;;;;;;;;;4935243;29;20996;-82
2024/01/07 00:39:10;;;;;;;1.43;1.00;;;;;;;;;;4935218;29;20448;-82
2024/01/07 00:41:35;;;;;;;2.00;1.27;;;;;;;;;;4935261;29;20424;-82
2024/01/07 00:44:01;;;;;;;2.00;1.30;;;;;;;;;;4934908;29;20974;-82
2024/01/07 00:46:27;;;;;;;1.47;1.07;;;;;;;;;;4935123;29;20474;-82
2024/01/07 00:48:53;;;;;;;5.40;0.70;;;;;;;;;;4935195;29;20900;-82
2024/01/07 00:51:19;;;;;;;1.20;0.70;;;;;;;;;;4949678;28;20429;-82
2024/01/07 00:53:45;;;;;;;2.30;0.90;;;;;;;;;;4952116;29;20428;-82
2024/01/07 00:56:14;;;;;;;1.67;1.03;;;;;;;;;;4954268;28;20409;-82
2024/01/07 00:58:40;;;;;;;2.97;0.93;;;;;;;;;;4954026;28;20432;-82
2024/01/07 01:01:06;;;;;;;2.20;1.07;;;;;;;;;;4953990;28;20426;-83
2024/01/07 01:03:35;;;;;;;1.50;1.10;;;;;;;;;;4972720;28;20432;-83
2024/01/07 01:06:02;;;;;;;1.33;1.17;;;;;;;;;;4972666;28;20417;-83
2024/01/07 01:08:28;;;;;;;1.37;1.00;;;;;;;;;;4917457;28;20879;-83
2024/01/07 01:10:54;;;;;;;2.70;1.30;;;;;;;;;;4957971;28;20457;-83
2024/01/07 01:13:20;;;;;;;2.87;0.80;;;;;;;;;;4957523;28;20427;-82
2024/01/07 01:15:46;;;;;;;2.33;1.00;;;;;;;;;;4957829;28;20431;-82
2024/01/07 01:18:12;;;;;;;1.80;1.10;;;;;;;;;;4957633;28;20423;-82
2024/01/07 01:20:37;;;;;;;3.43;1.10;;;;;;;;;;4957658;28;20432;-82
2024/01/07 01:23:03;;;;;;;2.60;0.93;;;;;;;;;;4972624;28;20420;-82
2024/01/07 01:25:29;;;;;;;1.43;0.93;;;;;;;;;;4957721;28;20464;-82
2024/01/07 01:27:55;;;;;;;2.23;1.40;;;;;;;;;;4957165;28;20838;-80
2024/01/07 01:30:21;;;;;;;2.63;1.30;;;;;;;;;;4972353;28;20427;-81
2024/01/07 01:32:47;;;;;;;1.90;1.27;;;;;;;;;;4957412;28;20951;-80
2024/01/07 01:35:13;;;;;;;3.70;1.60;;;;;;;;;;4957338;28;20878;-82
2024/01/07 01:37:39;;;;;;;2.20;1.20;;;;;;;;;;4957328;28;20433;-86
2024/01/07 01:40:05;;;;;;;1.20;0.90;;;;;;;;;;4957563;28;20396;-81
2024/01/07 01:42:31;;;;;;;2.07;1.17;;;;;;;;;;4957173;28;20905;-80
2024/01/07 01:45:02;;;;;;;2.90;1.03;;;;;;;;;;4957016;28;20420;-79
2024/01/07 01:47:29;;;;;;;1.10;0.93;;;;;;;;;;4957249;28;20473;-79
2024/01/07 01:49:55;;;;;;;2.63;1.20;;;;;;;;;;4957239;28;20452;-80
2024/01/07 01:52:21;;;;;;;3.07;0.90;;;;;;;;;;4957260;28;20408;-80
2024/01/07 01:54:47;;;;;;;4.67;0.60;;;;;;;;;;4957162;28;20415;-80
2024/01/07 01:57:16;;;;;;;1.50;1.33;;;;;;;;;;4957117;28;20904;-79
2024/01/07 01:59:43;;;;;;;3.40;2.07;;;;;;;;;;4956726;28;20768;-80
2024/01/07 02:02:09;;;;;;;1.40;1.07;;;;;;;;;;4956985;28;20444;-80
2024/01/07 02:04:35;;;;;;;3.00;1.07;;;;;;;;;;4957045;28;20413;-79
2024/01/07 02:07:01;;;;;;;2.30;1.17;;;;;;;;;;4956570;28;20531;-79
2024/01/07 02:09:26;;;;;;;1.90;1.40;;;;;;;;;;4954627;28;20971;-80
2024/01/07 02:12:02;;;;;;;1.90;1.30;;;;;;;;;;4940167;28;20432;-79
2024/01/07 02:14:28;;;;;;;2.80;1.10;;;;;;;;;;4923707;28;20431;-80
2024/01/07 02:16:54;;;;;;;3.03;1.40;;;;;;;;;;4931317;28;20479;-79
2024/01/07 02:19:21;;;;;;;3.00;1.80;;;;;;;;;;4956723;28;20419;-80
2024/01/07 02:21:47;;;;;;;4.23;1.67;;;;;;;;;;4956921;28;20428;-79
2024/01/07 02:24:16;;;;;;;4.10;2.10;;;;;;;;;;4957060;28;20451;-81
2024/01/07 02:26:42;;;;;;;2.60;1.20;;;;;;;;;;4956952;28;20487;-80
2024/01/07 02:29:08;;;;;;;3.40;1.87;;;;;;;;;;4955565;28;20434;-80
2024/01/07 02:31:34;;;;;;;1.73;1.37;;;;;;;;;;4956804;28;20731;-81
2024/01/07 02:34:00;;;;;;;3.40;1.13;;;;;;;;;;4955781;28;20409;-80
2024/01/07 02:36:25;;;;;;;2.40;1.47;;;;;;;;;;4956424;28;20505;-81
2024/01/07 02:38:51;;;;;;;1.87;1.17;;;;;;;;;;4956711;28;20512;-80
2024/01/07 02:41:18;;;;;;;1.37;1.20;;;;;;;;;;4956755;28;20411;-80
2024/01/07 02:43:44;;;;;;;2.83;1.60;;;;;;;;;;4956291;28;20412;-80
2024/01/07 02:46:10;;;;;;;1.60;1.50;;;;;;;;;;4956452;28;20767;-80
2024/01/07 02:48:35;;;;;;;3.43;1.33;;;;;;;;;;4956480;28;20421;-80
2024/01/07 02:51:03;;;;;;;2.43;1.10;;;;;;;;;;4956129;29;20416;-80
2024/01/07 02:53:29;;;;;;;1.23;0.70;;;;;;;;;;4956439;28;20840;-80
2024/01/07 02:55:55;;;;;;;2.20;1.57;;;;;;;;;;4956501;28;20467;-80
2024/01/07 02:58:21;;;;;;;2.10;1.40;;;;;;;;;;4955927;28;20601;-80
2024/01/07 03:00:47;;;;;;;4.60;1.83;;;;;;;;;;4956330;28;20448;-80
2024/01/07 03:03:12;;;;;;;5.00;1.90;;;;;;;;;;4956196;28;20499;-80
2024/01/07 03:05:39;;;;;;;1.07;0.97;;;;;;;;;;4956214;28;20917;-80
2024/01/07 03:08:05;;;;;;;3.60;1.63;;;;;;;;;;4949388;28;20471;-80
2024/01/07 03:10:30;;;;;;;2.43;1.10;;;;;;;;;;4936993;29;20773;-80
2024/01/07 03:12:56;;;;;;;24.37;3.00;;;;;;;;;;4936658;29;20453;-79
2024/01/07 03:15:22;;;;;;;2.30;1.20;;;;;;;;;;4936811;29;20497;-79
2024/01/07 03:17:51;;;;;;;1.53;0.97;;;;;;;;;;4936769;29;20422;-80
2024/01/07 03:20:17;;;;;;;2.03;1.53;;;;;;;;;;4936843;29;20496;-79
2024/01/07 03:22:43;;;;;;;2.27;0.93;;;;;;;;;;4936848;29;20512;-80
2024/01/07 03:25:09;;;;;;;1.07;0.97;;;;;;;;;;4951442;28;20829;-79
2024/01/07 03:27:35;;;;;;;3.50;0.80;;;;;;;;;;4936281;29;20488;-81
2024/01/07 03:30:01;;;;;;;2.40;1.60;;;;;;;;;;4949651;29;20463;-79
2024/01/07 03:32:27;;;;;;;3.43;0.93;;;;;;;;;;4954331;28;20515;-80
2024/01/07 03:34:53;;;;;;;2.00;1.13;;;;;;;;;;4954425;28;20416;-80
2024/01/07 03:37:19;;;;;;;1.63;1.10;;;;;;;;;;4955603;29;20421;-78
2024/01/07 03:39:47;;;;;;;3.20;1.00;;;;;;;;;;4955664;28;20421;-79
2024/01/07 03:42:13;;;;;;;5.63;1.77;;;;;;;;;;4914890;28;20443;-78
2024/01/07 03:44:39;;;;;;;1.70;1.40;;;;;;;;;;4955475;28;20425;-79
2024/01/07 03:47:05;;;;;;;2.37;1.63;;;;;;;;;;4955496;28;20503;-80
2024/01/07 03:49:31;;;;;;;1.47;1.03;;;;;;;;;;4955500;28;20422;-79
2024/01/07 03:51:57;;;;;;;4.60;1.53;;;;;;;;;;4955540;28;20792;-80
2024/01/07 03:54:23;;;;;;;1.73;0.87;;;;;;;;;;4955364;28;20413;-79
2024/01/07 03:56:49;;;;;;;2.70;2.10;;;;;;;;;;4955345;28;20844;-80
2024/01/07 03:59:15;;;;;;;1.53;0.60;;;;;;;;;;4955014;28;20506;-79
2024/01/07 04:01:40;;;;;;;4.40;1.30;;;;;;;;;;4955323;28;20462;-80
2024/01/07 04:04:06;;;;;;;3.87;1.63;;;;;;;;;;4955292;28;20938;-79
2024/01/07 04:06:33;;;;;;;2.30;1.53;;;;;;;;;;4970116;28;20476;-80
2024/01/07 04:08:58;;;;;;;2.70;1.13;;;;;;;;;;4955162;28;20459;-80
2024/01/07 04:11:24;;;;;;;3.10;0.97;;;;;;;;;;4955206;28;20969;-80
2024/01/07 04:13:50;;;;;;;1.10;0.80;;;;;;;;;;4954842;28;20956;-80
2024/01/07 04:16:17;;;;;;;1.90;0.77;;;;;;;;;;4970006;28;20510;-80
2024/01/07 04:18:43;;;;;;;3.67;1.50;;;;;;;;;;4955162;28;21011;-80
2024/01/07 04:21:12;;;;;;;2.20;1.13;;;;;;;;;;4955149;28;20445;-80
2024/01/07 04:23:43;;;;;;;1.50;0.90;;;;;;;;;;4969877;28;20796;-80
2024/01/07 04:26:09;;;;;;;2.87;1.20;;;;;;;;;;4954911;28;20408;-80
2024/01/07 04:28:35;;;;;;;2.10;1.20;;;;;;;;;;4954647;28;20432;-80
2024/01/07 04:31:01;;;;;;;1.33;1.03;;;;;;;;;;4955021;28;20770;-81
2024/01/07 04:33:27;;;;;;;1.43;0.87;;;;;;;;;;4954905;28;20418;-81
2024/01/07 04:35:57;;;;;;;3.23;0.90;;;;;;;;;;4954826;28;20468;-81
2024/01/07 04:38:23;;;;;;;0.83;0.63;;;;;;;;;;4958507;28;20443;-81
2024/01/07 04:40:49;;;;;;;2.30;1.30;;;;;;;;;;4958926;28;20448;-82
2024/01/07 04:43:15;;;;;;;2.20;1.30;;;;;;;;;;4958440;28;20850;-81
2024/01/07 04:45:41;;;;;;;1.50;0.90;;;;;;;;;;4934117;28;20516;-80
2024/01/07 04:48:07;;;;;;;3.80;0.90;;;;;;;;;;4957833;28;20484;-80
2024/01/07 04:50:33;;;;;;;1.93;0.83;;;;;;;;;;4958649;28;20412;-80
2024/01/07 04:52:59;;;;;;;3.90;1.20;;;;;;;;;;4958655;28;20516;-80
2024/01/07 04:55:25;;;;;;;3.00;1.00;;;;;;;;;;4958634;28;20436;-80
2024/01/07 04:57:51;;;;;;;1.90;1.00;;;;;;;;;;4958161;28;20974;-80
2024/01/07 05:00:17;;;;;;;1.10;1.00;;;;;;;;;;4958509;28;20514;-80
2024/01/07 05:02:43;;;;;;;2.57;1.10;;;;;;;;;;4958449;28;20424;-79
2024/01/07 05:05:09;;;;;;;1.13;1.00;;;;;;;;;;4973273;28;20417;-80
2024/01/07 05:07:35;;;;;;;0.87;0.73;;;;;;;;;;4958301;28;20812;-80
2024/01/07 05:10:01;;;;;;;1.57;0.97;;;;;;;;;;4973259;28;20423;-80
2024/01/07 05:12:27;;;;;;;1.63;1.00;;;;;;;;;;4972728;28;20941;-80
2024/01/07 05:14:53;;;;;;;3.90;1.33;;;;;;;;;;4958339;28;20913;-80
2024/01/07 05:17:18;;;;;;;5.93;1.27;;;;;;;;;;4958196;28;20472;-80
2024/01/07 05:19:44;;;;;;;2.03;1.17;;;;;;;;;;4958261;28;20425;-80
2024/01/07 05:22:10;;;;;;;3.00;1.10;;;;;;;;;;4958075;28;20439;-80
2024/01/07 05:24:39;;;;;;;2.17;1.27;;;;;;;;;;4958124;28;20903;-80
2024/01/07 05:27:05;;;;;;;1.47;0.93;;;;;;;;;;4957751;28;20580;-80
2024/01/07 05:29:33;;;;;;;2.50;1.37;;;;;;;;;;4957969;28;20444;-80
2024/01/07 05:32:00;;;;;;;3.07;1.03;;;;;;;;;;4972870;28;20892;-80
2024/01/07 05:34:26;;;;;;;8.37;1.50;;;;;;;;;;4957863;28;20468;-80
2024/01/07 05:36:52;;;;;;;1.73;0.73;;;;;;;;;;4957747;28;20874;-80
2024/01/07 05:39:18;;;;;;;2.93;1.00;;;;;;;;;;4957807;28;20514;-80
2024/01/07 05:41:44;;;;;;;1.37;0.67;;;;;;;;;;4957814;28;20428;-80
2024/01/07 05:44:10;;;;;;;3.30;1.90;;;;;;;;;;4957465;28;20414;-79
2024/01/07 05:46:39;;;;;;;2.87;1.20;;;;;;;;;;4957673;28;20470;-80
2024/01/07 05:49:05;;;;;;;4.67;1.63;;;;;;;;;;4956361;28;20444;-80
2024/01/07 05:51:31;;;;;;;1.03;0.77;;;;;;;;;;4957613;28;20519;-80
2024/01/07 05:53:57;;;;;;;2.80;1.30;;;;;;;;;;4957525;29;20415;-80
2024/01/07 05:56:23;;;;;;;2.13;1.20;;;;;;;;;;4957613;28;20826;-82
2024/01/07 05:58:49;;;;;;;4.53;1.53;;;;;;;;;;4957192;28;20500;-81
2024/01/07 06:01:21;;;;;;;2.73;1.27;;;;;;;;;;4934872;28;20446;-81
2024/01/07 06:03:50;;;;;;;1.70;0.80;;;;;;;;;;4972304;28;20423;-81
2024/01/07 06:06:16;;;;;;;4.27;0.87;;;;;;;;;;4957286;28;20507;-81
2024/01/07 06:08:42;;;;;;;3.50;1.77;;;;;;;;;;4972247;28;21001;-81
2024/01/07 06:11:09;;;;;;;4.40;1.53;;;;;;;;;;4957201;28;20452;-81
2024/01/07 06:13:35;;;;;;;1.73;1.53;;;;;;;;;;4956997;28;20426;-84
2024/01/07 06:16:04;;;;;;;2.87;1.30;;;;;;;;;;4957279;28;20423;-83
2024/01/07 06:18:30;;;;;;;4.00;1.40;;;;;;;;;;4957141;28;20426;-83
2024/01/07 06:21:05;;;;;;;4.03;0.90;;;;;;;;;;4957434;28;20442;-82
2024/01/07 06:23:42;;;;;;;4.37;1.37;;;;;;;;;;4957148;28;20489;-83
2024/01/07 06:26:09;;;;;;;2.70;1.53;;;;;;;;;;4971766;28;20436;-82
2024/01/07 06:28:40;;;;;;;1.97;1.57;;;;;;;;;;4956789;28;20835;-83
2024/01/07 06:31:09;;;;;;;4.30;1.50;;;;;;;;;;4957050;28;20448;-84
2024/01/07 06:33:35;;;;;;;3.93;1.30;;;;;;;;;;4971927;28;20468;-82
2024/01/07 06:36:01;;;;;;;1.90;0.90;;;;;;;;;;4956789;28;20883;-81
2024/01/07 06:38:30;;;;;;;1.33;1.03;;;;;;;;;;4956950;28;20783;-82
2024/01/07 06:41:03;;;;;;;2.87;1.40;;;;;;;;;;4971641;28;20426;-81
2024/01/07 06:43:32;;;;;;;2.37;1.27;;;;;;;;;;4956483;29;20434;-80
2024/01/07 06:45:58;;;;;;;2.97;1.40;;;;;;;;;;4971650;28;20418;-79
2024/01/07 06:48:26;;;;;;;5.80;1.43;;;;;;;;;;4956841;29;20482;-81
2024/01/07 06:50:55;;;;;;;7.03;1.87;;;;;;;;;;4956613;28;20408;-82
2024/01/07 06:53:21;;;;;;;1.77;1.40;;;;;;;;;;4956711;28;20425;-83
2024/01/07 06:55:50;;;;;;;1.10;0.77;;;;;;;;;;4956755;28;20429;-82
2024/01/07 06:58:16;;;;;;;2.00;1.00;;;;;;;;;;4956185;29;20781;-81
2024/01/07 07:00:49;;;;;;;1.90;1.10;;;;;;;;;;4956187;28;20425;-81
2024/01/07 07:03:19;;;;;;;2.40;1.20;;;;;;;;;;4956530;28;20409;-81
2024/01/07 07:05:45;;;;;;;1.90;1.30;;;;;;;;;;4956620;28;20414;-82
2024/01/07 07:08:12;;;;;;;1.83;0.63;;;;;;;;;;4944746;28;20619;-81
2024/01/07 07:10:37;;;;;;;1.43;0.70;;;;;;;;;;4927907;28;20512;-82
2024/01/07 07:13:04;;;;;;;3.30;1.73;;;;;;;;;;4956016;28;20510;-82
2024/01/07 07:15:38;;;;;;;3.50;1.37;;;;;;;;;;4956369;28;20423;-82
2024/01/07 07:18:04;;;;;;;0.90;0.70;;;;;;;;;;4956198;29;20453;-83
2024/01/07 07:20:30;;;;;;;2.57;1.20;;;;;;;;;;4956103;28;20406;-83
2024/01/07 07:22:56;;;;;;;1.50;0.70;;;;;;;;;;4955896;28;20433;-82
2024/01/07 07:25:22;;;;;;;3.37;1.60;;;;;;;;;;4970693;28;20768;-81
2024/01/07 07:27:48;;;;;;;1.10;1.00;;;;;;;;;;4970260;28;20482;-82
2024/01/07 07:30:20;;;;;;;2.57;1.07;;;;;;;;;;4955778;28;20420;-81
2024/01/07 07:32:48;;;;;;;6.00;1.10;;;;;;;;;;4970460;28;20446;-83
2024/01/07 07:35:20;;;;;;;1.20;0.73;;;;;;;;;;4955227;28;20467;-82
2024/01/07 07:37:46;;;;;;;2.27;1.07;;;;;;;;;;4956096;28;20514;-80
2024/01/07 07:40:12;;;;;;;0.77;0.63;;;;;;;;;;4955629;28;20498;-82
2024/01/07 07:42:39;;;;;;;1.53;0.80;;;;;;;;;;4955179;28;20412;-81
2024/01/07 07:45:05;;;;;;;1.43;1.13;;;;;;;;;;4970434;28;20484;-80
2024/01/07 07:47:46;;;;;;;1.67;1.03;;;;;;;;;;4955292;29;20985;-81
2024/01/07 07:50:13;;;;;;;1.50;0.77;;;;;;;;;;4955518;28;20436;-83
2024/01/07 07:52:39;;;;;;;2.10;1.17;;;;;;;;;;4955332;28;20479;-80
2024/01/07 07:55:06;;;;;;;2.40;1.07;;;;;;;;;;4970138;28;20422;-80
2024/01/07 07:57:32;;;;;;;6.47;0.70;;;;;;;;;;4954880;28;20479;-82
2024/01/07 08:00:02;;;;;;;3.07;1.57;;;;;;;;;;4955333;28;20418;-82
2024/01/07 08:02:28;;;;;;;1.63;0.63;;;;;;;;;;4955292;28;20909;-80
2024/01/07 08:04:54;;;;;;;3.07;1.30;;;;;;;;;;4955254;28;20432;-81
2024/01/07 08:07:20;;;;;;;3.00;1.50;;;;;;;;;;4969978;28;20480;-87
2024/01/07 08:09:46;;;;;;;4.43;2.07;;;;;;;;;;4955183;28;20924;-85
2024/01/07 08:12:13;;;;;;;3.53;1.90;;;;;;;;;;4929620;28;20944;-81
2024/01/07 08:14:42;;;;;;;2.67;1.00;;;;;;;;;;4938585;29;20427;-79
2024/01/07 08:17:08;;;;;;;3.67;1.70;;;;;;;;;;4955076;28;20914;-77
2024/01/07 08:19:34;;;;;;;2.33;1.73;;;;;;;;;;4955062;28;20779;-80
2024/01/07 08:22:00;;;;;;;2.50;2.00;;;;;;;;;;4955079;28;20426;-79
2024/01/07 08:24:26;;;;;;;2.97;1.83;;;;;;;;;;4954999;28;20414;-81
2024/01/07 08:26:54;;;;;;;2.07;1.70;;;;;;;;;;4954611;28;20467;-79
2024/01/07 08:29:20;;;;;;;4.93;2.13;;;;;;;;;;4954985;29;20425;-80
2024/01/07 08:31:46;;;;;;;3.13;1.73;;;;;;;;;;4954979;28;20404;-80
2024/01/07 08:34:12;;;;;;;2.50;2.23;;;;;;;;;;4955090;28;20525;-80
2024/01/07 08:36:38;;;;;;;4.40;2.80;;;;;;;;;;4951677;28;20515;-80
2024/01/07 08:39:04;;;;;;;3.87;2.13;;;;;;;;;;4951064;29;20420;-79
2024/01/07 08:41:30;;;;;;;3.70;2.10;;;;;;;;;;4954575;28;20422;-80
2024/01/07 08:43:56;;;;;;;6.00;3.00;;;;;;;;;;4954865;28;20464;-79
2024/01/07 08:46:22;;;;;;;4.20;2.83;;;;;;;;;;4954814;28;20436;-79
2024/01/07 08:48:48;;;;;;;5.10;2.60;;;;;;;;;;4954772;28;20429;-80
2024/01/07 08:51:14;;;;;;;6.77;2.70;;;;;;;;;;4954708;28;20459;-78
2024/01/07 08:53:40;;;;;;;3.37;2.37;;;;;;;;;;4954700;28;20833;-80
2024/01/07 08:56:06;;;;;;;9.37;2.43;;;;;;;;;;4954819;28;20413;-79
2024/01/07 08:58:33;;;;;;;5.20;2.50;;;;;;;;;;4954385;28;20468;-79
2024/01/07 09:00:59;;;;;;;8.43;3.00;;;;;;;;;;4954798;28;20791;-79
2024/01/07 09:03:25;;;;;;;4.93;2.63;;;;;;;;;;4954653;28;20459;-80
2024/01/07 09:05:51;;;;;;;3.60;2.00;;;;;;;;;;4954641;28;20463;-78
2024/01/07 09:08:17;;;;;;;3.20;1.33;;;;;;;;;;4954541;28;20569;-80
2024/01/07 09:10:43;;;;;;;5.37;2.73;;;;;;;;;;4954594;28;20465;-79
2024/01/07 09:13:09;;;;;;;6.17;2.87;;;;;;;;;;4953132;28;20504;-79
2024/01/07 09:15:35;;;;;;;2.93;2.07;;;;;;;;;;4954650;28;20819;-81
2024/01/07 09:18:01;;;;;;;3.93;2.60;;;;;;;;;;4954680;28;20420;-80
2024/01/07 09:20:27;;;;;;;4.10;2.10;;;;;;;;;;4954543;28;20898;-78
2024/01/07 09:22:53;;;;;;;3.93;2.20;;;;;;;;;;4955777;28;20840;-79
2024/01/07 09:25:19;;;;;;;2.90;1.47;;;;;;;;;;4958006;28;20410;-78
2024/01/07 09:27:51;;;;;;;4.90;2.33;;;;;;;;;;4957723;28;20474;-78
2024/01/07 09:30:17;;;;;;;3.20;1.40;;;;;;;;;;4956748;28;20420;-78
2024/01/07 09:32:43;;;;;;;2.27;1.10;;;;;;;;;;4972816;28;20512;-78
2024/01/07 09:35:09;;;;;;;1.80;1.37;;;;;;;;;;4972660;28;20472;-79
2024/01/07 09:37:36;;;;;;;2.23;1.00;;;;;;;;;;4972943;28;20992;-79
2024/01/07 09:40:04;;;;;;;3.20;1.43;;;;;;;;;;4958180;28;20475;-80
2024/01/07 09:42:30;;;;;;;3.60;0.80;;;;;;;;;;4972587;28;20433;-79
2024/01/07 09:44:56;;;;;;;2.40;1.37;;;;;;;;;;4958071;28;20409;-80
2024/01/07 09:47:23;;;;;;;2.63;1.37;;;;;;;;;;4957822;28;20514;-78
2024/01/07 09:49:49;;;;;;;3.87;1.60;;;;;;;;;;4957924;28;20762;-82
2024/01/07 09:52:17;;;;;;;1.93;1.30;;;;;;;;;;4957858;28;20431;-80
2024/01/07 09:54:45;;;;;;;2.20;1.17;;;;;;;;;;4957811;28;20414;-82
2024/01/07 09:57:11;;;;;;;4.43;1.10;;;;;;;;;;4957499;28;20417;-79
2024/01/07 09:59:40;;;;;;;3.13;1.20;;;;;;;;;;4957737;28;20422;-81
2024/01/07 10:02:06;;;;;;;3.40;1.57;;;;;;;;;;4957619;28;20511;-79
2024/01/07 10:04:32;;;;;;;4.07;1.47;;;;;;;;;;4957794;28;20448;-78
2024/01/07 10:06:59;;;;;;;2.03;1.00;;;;;;;;;;4957558;28;20461;-80
2024/01/07 10:09:26;;;;;;;3.00;1.70;;;;;;;;;;4957643;28;20479;-80
2024/01/07 10:11:53;;;;;;;4.73;1.80;;;;;;;;;;4957299;28;20409;-80
2024/01/07 10:14:22;;;;;;;2.63;1.30;;;;;;;;;;4957570;28;20426;-80
2024/01/07 10:16:51;;;;;;;3.77;1.50;;;;;;;;;;4957608;28;20489;-80
2024/01/07 10:19:21;;;;;;;4.30;1.20;;;;;;;;;;4957540;28;20572;-79
2024/01/07 10:21:47;;;;;;;5.70;1.07;;;;;;;;;;4957489;28;20896;-79
2024/01/07 10:24:13;;;;;;;3.87;2.10;;;;;;;;;;4957719;28;20507;-79
2024/01/07 10:26:43;;;;;;;4.93;1.93;;;;;;;;;;4956907;29;20457;-79
2024/01/07 10:29:09;;;;;;;3.30;1.77;;;;;;;;;;4957174;28;20428;-81
2024/01/07 10:31:35;;;;;;;2.07;1.17;;;;;;;;;;4956947;28;20415;-78
2024/01/07 10:34:01;;;;;;;2.07;1.20;;;;;;;;;;4956231;28;20456;-77
2024/01/07 10:36:28;;;;;;;2.90;1.97;;;;;;;;;;4956556;28;20872;-78
2024/01/07 10:38:55;;;;;;;1.90;1.30;;;;;;;;;;4956852;28;20508;-77
2024/01/07 10:41:22;;;;;;;2.80;1.20;;;;;;;;;;4956411;28;20456;-77
2024/01/07 10:43:54;;;;;;;2.73;1.40;;;;;;;;;;4956640;28;20417;-77
2024/01/07 10:46:20;;;;;;;2.20;0.90;;;;;;;;;;4956571;28;20409;-77
2024/01/07 10:48:56;;;;;;;2.27;1.03;;;;;;;;;;4956557;28;20458;-77
2024/01/07 10:51:22;;;;;;;3.27;1.87;;;;;;;;;;4956578;28;20461;-76
2024/01/07 10:53:57;;;;;;;5.90;1.87;;;;;;;;;;4956362;28;20802;-77
2024/01/07 10:56:30;;;;;;;3.87;1.73;;;;;;;;;;4956085;28;20411;-76
2024/01/07 10:58:57;;;;;;;3.50;0.97;;;;;;;;;;4956290;28;20503;-77
2024/01/07 11:01:23;;;;;;;2.83;1.20;;;;;;;;;;4956316;28;20500;-77
2024/01/07 11:04:08;;;;;;;4.20;0.93;;;;;;;;;;4956290;28;20887;-77
2024/01/07 11:06:42;;;;;;;1.70;1.00;;;;;;;;;;4956223;28;20418;-78
2024/01/07 11:09:14;;;;;;;3.43;1.10;;;;;;;;;;4956113;28;20898;-77
2024/01/07 11:11:42;;;;;;;1.63;0.50;;;;;;;;;;4955863;28;20407;-77
2024/01/07 11:14:28;;;;;;;2.70;1.10;;;;;;;;;;4970916;28;20429;-78
2024/01/07 11:16:53;;;;;;;5.17;1.17;;;;;;;;;;4970855;28;20431;-77
2024/01/07 11:19:20;;;;;;;1.90;0.83;;;;;;;;;;4956119;28;20496;-77
2024/01/07 11:21:46;;;;;;;3.40;0.63;;;;;;;;;;4956058;28;20413;-81
2024/01/07 11:24:38;;;;;;;2.87;1.20;;;;;;;;;;4955915;28;20443;-81
2024/01/07 11:27:04;;;;;;;2.43;1.30;;;;;;;;;;4970329;28;20995;-80
2024/01/07 11:29:32;;;;;;;2.37;1.20;;;;;;;;;;4970617;28;20418;-80
2024/01/07 11:31:58;;;;;;;2.27;0.70;;;;;;;;;;4955724;28;20513;-81
2024/01/07 11:34:43;;;;;;;1.60;0.90;;;;;;;;;;4955824;28;20827;-80
2024/01/07 11:37:13;;;;;;;3.17;1.00;;;;;;;;;;4955784;28;20187;-78
2024/01/07 11:39:39;;;;;;;3.57;0.90;;;;;;;;;;4955659;28;20420;-79
2024/01/07 11:42:05;;;;;;;2.30;1.10;;;;;;;;;;4955284;28;20506;-80
2024/01/07 11:44:33;;;;;;;3.47;1.10;;;;;;;;;;4955811;28;20419;-80
2024/01/07 11:46:59;;;;;;;2.50;0.70;;;;;;;;;;4955440;28;20793;-80
2024/01/07 11:49:25;;;;;;;2.53;0.60;;;;;;;;;;4942574;28;20506;-79
2024/01/07 11:51:51;;;;;;;2.27;0.87;;;;;;;;;;4936447;29;20507;-78
2024/01/07 11:54:18;;;;;;;2.03;1.33;;;;;;;;;;4936326;29;20490;-77
2024/01/07 11:56:44;;;;;;;2.90;1.60;;;;;;;;;;4935999;29;20498;-78
2024/01/07 11:59:10;;;;;;;8.60;1.20;;;;;;;;;;4936176;29;20452;-78
2024/01/07 12:01:36;;;;;;;3.27;1.70;;;;;;;;;;4936186;29;20450;-80
2024/01/07 12:04:02;;;;;;;4.20;2.20;;;;;;;;;;4936160;29;20927;-77
2024/01/07 12:06:28;;;;;;;4.83;2.03;;;;;;;;;;4936154;29;20420;-80
2024/01/07 12:08:54;;;;;;;6.40;1.80;;;;;;;;;;4936087;29;20441;-80
2024/01/07 12:11:20;;;;;;;4.20;1.77;;;;;;;;;;4935710;29;20821;-80
2024/01/07 12:13:46;;;;;;;4.73;2.30;;;;;;;;;;4936001;29;20444;-79
2024/01/07 12:16:12;;;;;;;3.47;1.87;;;;;;;;;;4935995;29;20410;-81
2024/01/07 12:18:39;;;;;;;5.17;2.40;;;;;;;;;;4936081;29;20413;-79
2024/01/07 12:21:05;;;;;;;5.13;1.73;;;;;;;;;;4936033;29;20418;-80
2024/01/07 12:23:38;;;;;;;3.10;1.70;;;;;;;;;;4935933;29;20448;-80
2024/01/07 12:26:10;;;;;;;5.40;2.20;;;;;;;;;;4935746;29;20467;-80
2024/01/07 12:28:36;;;;;;;2.13;1.80;;;;;;;;;;4935790;29;20835;-81
2024/01/07 12:31:03;;;;;;;3.40;2.40;;;;;;;;;;4935964;29;20422;-79
2024/01/07 12:33:30;;;;;;;6.03;1.77;;;;;;;;;;4935813;29;20509;-81
2024/01/07 12:35:56;;;;;;;4.50;2.00;;;;;;;;;;4935511;29;20823;-81
2024/01/07 12:38:25;;;;;;;2.27;1.30;;;;;;;;;;4935729;29;20412;-80
2024/01/07 12:40:52;;;;;;;4.07;0.87;;;;;;;;;;4935680;29;20473;-81
2024/01/07 12:43:18;;;;;;;3.73;0.83;;;;;;;;;;4935803;29;20498;-81
2024/01/07 12:45:46;;;;;;;3.23;1.90;;;;;;;;;;4935747;29;20922;-81
2024/01/07 12:48:12;;;;;;;3.50;2.57;;;;;;;;;;4935603;29;20552;-77
2024/01/07 12:50:38;;;;;;;3.67;1.70;;;;;;;;;;4935621;29;20420;-78
2024/01/07 12:53:05;;;;;;;5.50;1.10;;;;;;;;;;4935643;29;20431;-81
2024/01/07 12:55:31;;;;;;;2.20;1.40;;;;;;;;;;4935734;29;20495;-81
2024/01/07 12:57:58;;;;;;;4.73;1.30;;;;;;;;;;4936608;29;20428;-81
2024/01/07 13:00:24;;;;;;;2.87;1.03;;;;;;;;;;4939456;29;20769;-82
2024/01/07 13:02:51;;;;;;;3.07;1.17;;;;;;;;;;4939297;29;20836;-81
2024/01/07 13:05:17;;;;;;;3.70;1.93;;;;;;;;;;4939285;29;20418;-81
2024/01/07 13:07:43;;;;;;;3.27;1.47;;;;;;;;;;4939320;29;20537;-84
2024/01/07 13:10:12;;;;;;;3.67;1.47;;;;;;;;;;4939257;29;20491;-81
2024/01/07 13:12:38;;;;;;;3.60;1.50;;;;;;;;;;4938922;29;20418;-82
2024/01/07 13:15:04;;;;;;;5.27;1.87;;;;;;;;;;4953977;29;20466;-84
2024/01/07 13:17:32;;;;;;;2.50;1.67;;;;;;;;;;4938995;29;20432;-84
2024/01/07 13:19:58;;;;;;;2.30;1.47;;;;;;;;;;4939122;29;20457;-85
2024/01/07 13:22:24;;;;;;;2.70;1.60;;;;;;;;;;4939070;29;20417;-84
2024/01/07 13:24:50;;;;;;;2.13;1.20;;;;;;;;;;4939114;29;20520;-85
2024/01/07 13:27:20;;;;;;;4.43;1.23;;;;;;;;;;4938564;29;20489;-84
2024/01/07 13:29:47;;;;;;;1.83;1.70;;;;;;;;;;4939016;29;20409;-81
2024/01/07 13:32:17;;;;;;;4.10;1.63;;;;;;;;;;4938840;29;20824;-86
2024/01/07 13:34:43;;;;;;;2.00;1.13;;;;;;;;;;4938684;29;20501;-79
2024/01/07 13:37:09;;;;;;;3.70;1.30;;;;;;;;;;4938762;29;20946;-85
2024/01/07 13:39:34;;;;;;;2.43;1.33;;;;;;;;;;4938851;29;20409;-84
2024/01/07 13:42:00;;;;;;;3.63;1.47;;;;;;;;;;4938319;29;20418;-85
2024/01/07 13:44:26;;;;;;;1.97;1.70;;;;;;;;;;4938728;29;20417;-83
2024/01/07 13:46:53;;;;;;;2.73;1.70;;;;;;;;;;4953241;29;20457;-85
2024/01/07 13:49:19;;;;;;;3.03;1.07;;;;;;;;;;4938656;29;20425;-84
2024/01/07 13:51:45;;;;;;;2.97;1.80;;;;;;;;;;4938626;29;20406;-85
2024/01/07 13:54:14;;;;;;;2.23;1.47;;;;;;;;;;4938356;29;20428;-82
2024/01/07 13:56:42;;;;;;;3.73;2.33;;;;;;;;;;4938049;29;20480;-84
2024/01/07 13:59:08;;;;;;;3.17;1.87;;;;;;;;;;4938411;29;20429;-85
2024/01/07 14:01:34;;;;;;;2.53;1.70;;;;;;;;;;4938354;29;20414;-83
2024/01/07 14:04:01;;;;;;;3.77;1.70;;;;;;;;;;4938409;29;20430;-84
2024/01/07 14:06:27;;;;;;;2.70;1.07;;;;;;;;;;4938356;29;20766;-83
2024/01/07 14:08:53;;;;;;;2.03;1.37;;;;;;;;;;4937432;29;20514;-84
2024/01/07 14:11:19;;;;;;;3.50;1.17;;;;;;;;;;4937521;29;20432;-84
2024/01/07 14:13:46;;;;;;;2.10;1.57;;;;;;;;;;4938190;29;20894;-83
2024/01/07 14:16:12;;;;;;;1.37;1.10;;;;;;;;;;4938087;29;20410;-83
2024/01/07 14:18:38;;;;;;;2.10;0.87;;;;;;;;;;4938041;29;20902;-83
2024/01/07 14:21:04;;;;;;;2.00;1.37;;;;;;;;;;4938042;29;20445;-83
2024/01/07 14:23:31;;;;;;;3.00;1.50;;;;;;;;;;4938120;29;20825;-83
2024/01/07 14:25:57;;;;;;;2.40;1.17;;;;;;;;;;4937598;29;20422;-79
2024/01/07 14:28:23;;;;;;;3.70;1.33;;;;;;;;;;4943637;29;20854;-82
2024/01/07 14:30:49;;;;;;;2.43;1.17;;;;;;;;;;4952103;28;21069;-83
2024/01/07 14:33:15;;;;;;;2.50;1.13;;;;;;;;;;4957336;29;20471;-82
2024/01/07 14:35:41;;;;;;;2.97;0.93;;;;;;;;;;4956262;28;20472;-81
2024/01/07 14:38:07;;;;;;;1.97;0.73;;;;;;;;;;4956876;28;20428;-83
2024/01/07 14:40:33;;;;;;;2.80;1.23;;;;;;;;;;4956428;28;20428;-82